Aegean Viii — SXKO — position and weather

sailwx.info

Track history (hours):
 
Tides and Currents Weather Stations Pressure Air Temp Water Temp Dewpoint Dewpoint Depression Visibility Wind Speed Wind Dir Waves Ship Positions

Aegean Viii

Last reported at 2015-May-25 04:33 UTC. Time now 2015-May-25 05:20 UTC.
Position N 38°01' E 023°32'.

Length 12 m; draft 4.5 m.

Type: Tanker. MMSI: 240732000.

Date/timePositionNaut miles runAvg speedWind from/ knotsBaromVisibWave heightAir tempDewpointWater temp
2015-May-25 04:33N 38°01' E 023°32'1 0.9
2015-May-25 03:33N 38°02' E 023°32'0 0.3
2015-May-25 02:33N 38°02' E 023°32'0 0.0
2015-May-25 01:33N 38°02' E 023°32'0 0.0
2015-May-23 08:33N 38°02' E 023°32'3 2.6
2015-May-23 07:33N 38°02' E 023°35'0 0.4
2015-May-23 06:33N 38°02' E 023°36'0 0.0
2015-May-23 05:33N 38°02' E 023°36'0 0.0
2015-May-23 04:33N 38°02' E 023°36'3 2.8
2015-May-23 03:33N 38°02' E 023°32'0 0.3
2015-May-23 02:33N 38°02' E 023°32'0 0.0
2015-May-22 11:04N 38°02' E 023°32'0 0.0
2015-May-22 10:33N 38°02' E 023°32'0 0.0
2015-May-22 09:33N 38°02' E 023°32'0 0.0
2015-May-22 08:33N 38°02' E 023°32'0 0.0
2015-May-22 07:33N 38°02' E 023°32'0 0.0
2015-May-22 06:33N 38°02' E 023°32'0 0.0
2015-May-22 05:33N 38°02' E 023°32'0 0.0
2015-May-22 04:33N 38°02' E 023°32'4 0.3
2015-May-21 15:10N 37°58' E 023°33'4 7.2
2015-May-21 14:33N 37°54' E 023°32'3 3.2
2015-May-21 13:33N 37°51' E 023°30'0 0.0
2015-May-21 12:33N 37°51' E 023°30'0 0.0
2015-May-21 11:33N 37°51' E 023°30'0 0.0
2015-May-21 10:33N 37°51' E 023°30'0 0.0
2015-May-21 09:33N 37°51' E 023°30'0 0.0
2015-May-21 08:33N 37°51' E 023°30'0 0.0
2015-May-21 07:33N 37°51' E 023°30'7 6.7
2015-May-21 06:33N 37°57' E 023°34'5 5.2
2015-May-21 05:33N 38°02' E 023°32'0 0.0
2015-May-21 04:33N 38°02' E 023°32'0 0.0
2015-May-21 03:33N 38°02' E 023°32'0 0.0
2015-May-21 02:33N 38°02' E 023°32'0 0.0
2015-May-20 11:28N 38°02' E 023°32'0 0.0
2015-May-20 10:33N 38°02' E 023°32'3 2.9
2015-May-20 09:33N 38°02' E 023°36'0 0.0
2015-May-20 08:33N 38°02' E 023°36'0 0.0
2015-May-20 07:33N 38°02' E 023°36'0 0.0
2015-May-20 06:33N 38°02' E 023°36'0 0.0
2015-May-20 05:33N 38°02' E 023°36'0 0.0
2015-May-20 04:32N 38°02' E 023°36'3 2.8
2015-May-20 03:33N 38°02' E 023°32'0 0.3
2015-May-20 02:33N 38°02' E 023°32'0 0.0
2015-May-19 12:33N 38°02' E 023°32'0 0.2
2015-May-19 11:33N 38°02' E 023°32'3 3.4
2015-May-19 10:33N 37°59' E 023°33'5 4.6
2015-May-19 09:33N 37°56' E 023°38'0 0.0
2015-May-19 08:33N 37°56' E 023°38'0 0.0
2015-May-19 07:33N 37°56' E 023°38'0 0.0
2015-May-19 06:33N 37°56' E 023°38'1 1.5
2015-May-19 05:34N 37°57' E 023°36'6 6.3
2015-May-19 04:33N 38°02' E 023°32'0 0.0
2015-May-19 03:34N 38°02' E 023°32'0 0.0
2015-May-19 02:33N 38°02' E 023°32'0 0.0
2015-May-18 11:05N 38°02' E 023°32'0 0.0
2015-May-18 10:33N 38°02' E 023°32'0 0.0
2015-May-18 09:33N 38°02' E 023°32'3 1.5
2015-May-18 07:33N 38°02' E 023°36'0 0.0
2015-May-18 06:33N 38°02' E 023°36'0 0.0
2015-May-18 05:31N 38°02' E 023°36'0 0.0
2015-May-18 04:32N 38°02' E 023°36'3 2.8
2015-May-18 03:33N 38°02' E 023°32'0 0.0
2015-May-17 04:34N 38°02' E 023°32'5 5.2
2015-May-17 03:33N 37°57' E 023°34'0 0.0
2015-May-17 02:33N 37°57' E 023°34'0 0.0
2015-May-17 01:34N 37°57' E 023°34'0 0.0
2015-May-17 00:34N 37°57' E 023°34'0 0.1
2015-May-16 23:33N 37°57' E 023°34'2 1.8
2015-May-16 22:34N 37°58' E 023°37'0 0.0
2015-May-16 21:33N 37°58' E 023°37'0 0.0
2015-May-16 20:33N 37°58' E 023°37'2 1.5
2015-May-16 19:33N 37°57' E 023°35'0 0.5
2015-May-16 18:34N 37°57' E 023°34'0 0.0
2015-May-16 17:33N 37°57' E 023°34'5 5.0
2015-May-16 16:33N 38°02' E 023°32'0 0.2
2015-May-16 15:33N 38°02' E 023°32'0 0.0
2015-May-16 14:33N 38°02' E 023°32'0 0.0
2015-May-16 13:33N 38°02' E 023°32'0 0.0
2015-May-16 12:33N 38°02' E 023°32'0 0.0
2015-May-16 11:33N 38°02' E 023°32'0 0.0
2015-May-16 10:33N 38°02' E 023°32'0 0.0
2015-May-16 09:33N 38°02' E 023°32'3 2.8
2015-May-16 08:33N 37°59' E 023°33'3 3.4
2015-May-16 07:33N 37°58' E 023°36'0 0.0
2015-May-16 06:33N 37°58' E 023°36'0 0.0
2015-May-16 05:33N 37°58' E 023°36'3 3.1
2015-May-16 04:33N 37°59' E 023°33'4 3.6
2015-May-16 03:33N 38°02' E 023°32'0 0.0
2015-May-15 11:33N 38°02' E 023°32'0 0.0
2015-May-15 10:33N 38°02' E 023°32'0 0.0
2015-May-15 09:33N 38°02' E 023°32'0 0.0
2015-May-15 08:33N 38°02' E 023°32'0 0.0
2015-May-15 07:33N 38°02' E 023°32'0 0.0
2015-May-15 06:33N 38°02' E 023°32'  
Track history (hours):
 
Tides and Currents Weather Stations Pressure Air Temp Water Temp Dewpoint Dewpoint Depression Visibility Wind Speed Wind Dir Waves Ship Positions

Aegean Viii

Last reported at 2015-May-25 04:33 UTC. Time now 2015-May-25 05:20 UTC.
Position N 38°01' E 023°32'.

Length 12 m; draft 4.5 m.

Type: Tanker. MMSI: 240732000.

Date/timePositionNaut miles runAvg speedWind from/ knotsBaromVisibWave heightAir tempDewpointWater temp
2015-May-25 04:33N 38°01' E 023°32'1 0.9
2015-May-25 03:33N 38°02' E 023°32'0 0.3
2015-May-25 02:33N 38°02' E 023°32'0 0.0
2015-May-25 01:33N 38°02' E 023°32'0 0.0
2015-May-23 08:33N 38°02' E 023°32'3 2.6
2015-May-23 07:33N 38°02' E 023°35'0 0.4
2015-May-23 06:33N 38°02' E 023°36'0 0.0
2015-May-23 05:33N 38°02' E 023°36'0 0.0
2015-May-23 04:33N 38°02' E 023°36'3 2.8
2015-May-23 03:33N 38°02' E 023°32'0 0.3
2015-May-23 02:33N 38°02' E 023°32'0 0.0
2015-May-22 11:04N 38°02' E 023°32'0 0.0
2015-May-22 10:33N 38°02' E 023°32'0 0.0
2015-May-22 09:33N 38°02' E 023°32'0 0.0
2015-May-22 08:33N 38°02' E 023°32'0 0.0
2015-May-22 07:33N 38°02' E 023°32'0 0.0
2015-May-22 06:33N 38°02' E 023°32'0 0.0
2015-May-22 05:33N 38°02' E 023°32'0 0.0
2015-May-22 04:33N 38°02' E 023°32'4 0.3
2015-May-21 15:10N 37°58' E 023°33'4 7.2
2015-May-21 14:33N 37°54' E 023°32'3 3.2
2015-May-21 13:33N 37°51' E 023°30'0 0.0
2015-May-21 12:33N 37°51' E 023°30'0 0.0
2015-May-21 11:33N 37°51' E 023°30'0 0.0
2015-May-21 10:33N 37°51' E 023°30'0 0.0
2015-May-21 09:33N 37°51' E 023°30'0 0.0
2015-May-21 08:33N 37°51' E 023°30'0 0.0
2015-May-21 07:33N 37°51' E 023°30'7 6.7
2015-May-21 06:33N 37°57' E 023°34'5 5.2
2015-May-21 05:33N 38°02' E 023°32'0 0.0
2015-May-21 04:33N 38°02' E 023°32'0 0.0
2015-May-21 03:33N 38°02' E 023°32'0 0.0
2015-May-21 02:33N 38°02' E 023°32'0 0.0
2015-May-20 11:28N 38°02' E 023°32'0 0.0
2015-May-20 10:33N 38°02' E 023°32'3 2.9
2015-May-20 09:33N 38°02' E 023°36'0 0.0
2015-May-20 08:33N 38°02' E 023°36'0 0.0
2015-May-20 07:33N 38°02' E 023°36'0 0.0
2015-May-20 06:33N 38°02' E 023°36'0 0.0
2015-May-20 05:33N 38°02' E 023°36'0 0.0
2015-May-20 04:32N 38°02' E 023°36'3 2.8
2015-May-20 03:33N 38°02' E 023°32'0 0.3
2015-May-20 02:33N 38°02' E 023°32'0 0.0
2015-May-19 12:33N 38°02' E 023°32'0 0.2
2015-May-19 11:33N 38°02' E 023°32'3 3.4
2015-May-19 10:33N 37°59' E 023°33'5 4.6
2015-May-19 09:33N 37°56' E 023°38'0 0.0
2015-May-19 08:33N 37°56' E 023°38'0 0.0
2015-May-19 07:33N 37°56' E 023°38'0 0.0
2015-May-19 06:33N 37°56' E 023°38'1 1.5
2015-May-19 05:34N 37°57' E 023°36'6 6.3
2015-May-19 04:33N 38°02' E 023°32'0 0.0
2015-May-19 03:34N 38°02' E 023°32'0 0.0
2015-May-19 02:33N 38°02' E 023°32'0 0.0
2015-May-18 11:05N 38°02' E 023°32'0 0.0
2015-May-18 10:33N 38°02' E 023°32'0 0.0
2015-May-18 09:33N 38°02' E 023°32'3 1.5
2015-May-18 07:33N 38°02' E 023°36'0 0.0
2015-May-18 06:33N 38°02' E 023°36'0 0.0
2015-May-18 05:31N 38°02' E 023°36'0 0.0
2015-May-18 04:32N 38°02' E 023°36'3 2.8
2015-May-18 03:33N 38°02' E 023°32'0 0.0
2015-May-17 04:34N 38°02' E 023°32'5 5.2
2015-May-17 03:33N 37°57' E 023°34'0 0.0
2015-May-17 02:33N 37°57' E 023°34'0 0.0
2015-May-17 01:34N 37°57' E 023°34'0 0.0
2015-May-17 00:34N 37°57' E 023°34'0 0.1
2015-May-16 23:33N 37°57' E 023°34'2 1.8
2015-May-16 22:34N 37°58' E 023°37'0 0.0
2015-May-16 21:33N 37°58' E 023°37'0 0.0
2015-May-16 20:33N 37°58' E 023°37'2 1.5
2015-May-16 19:33N 37°57' E 023°35'0 0.5
2015-May-16 18:34N 37°57' E 023°34'0 0.0
2015-May-16 17:33N 37°57' E 023°34'5 5.0
2015-May-16 16:33N 38°02' E 023°32'0 0.2
2015-May-16 15:33N 38°02' E 023°32'0 0.0
2015-May-16 14:33N 38°02' E 023°32'0 0.0
2015-May-16 13:33N 38°02' E 023°32'0 0.0
2015-May-16 12:33N 38°02' E 023°32'0 0.0
2015-May-16 11:33N 38°02' E 023°32'0 0.0
2015-May-16 10:33N 38°02' E 023°32'0 0.0
2015-May-16 09:33N 38°02' E 023°32'3 2.8
2015-May-16 08:33N 37°59' E 023°33'3 3.4
2015-May-16 07:33N 37°58' E 023°36'0 0.0
2015-May-16 06:33N 37°58' E 023°36'0 0.0
2015-May-16 05:33N 37°58' E 023°36'3 3.1
2015-May-16 04:33N 37°59' E 023°33'4 3.6
2015-May-16 03:33N 38°02' E 023°32'0 0.0
2015-May-15 11:33N 38°02' E 023°32'0 0.0
2015-May-15 10:33N 38°02' E 023°32'0 0.0
2015-May-15 09:33N 38°02' E 023°32'0 0.0
2015-May-15 08:33N 38°02' E 023°32'0 0.0
2015-May-15 07:33N 38°02' E 023°32'0 0.0
2015-May-15 06:33N 38°02' E 023°32'  

Dump ship's entire track history